Time;durP1;ratioP1;P1;durP2;ratioP2;P2;SDS_P1;SDS_P2;PMS_P1;PMS_P2;Temp;Humidity;BMP_temperature;BMP_pressure;BME280_temperature;BME280_humidity;BME280_pressure;Samples;Min_cycle;Max_cycle;Signal;HPM_P1;HPM_P2
2023/11/25 00:01:05;;;;;;;2.75;1.52;;;1.70;99.90;;;;;;4687030;30;20124;-50
2023/11/25 00:03:32;;;;;;;2.90;1.33;;;1.60;99.90;;;;;;4687314;30;20061;-49
2023/11/25 00:05:59;;;;;;;2.72;1.40;;;1.60;99.90;;;;;;4684957;30;20360;-50
2023/11/25 00:08:26;;;;;;;2.42;1.40;;;1.70;99.90;;;;;;4689734;30;20062;-46
2023/11/25 00:10:55;;;;;;;1.90;1.30;;;1.70;99.90;;;;;;4681877;30;20124;-52
2023/11/25 00:13:22;;;;;;;3.13;1.55;;;1.70;99.90;;;;;;4694216;30;20124;-53
2023/11/25 00:15:49;;;;;;;3.53;1.40;;;1.70;99.90;;;;;;4694305;30;20069;-48
2023/11/25 00:18:17;;;;;;;1.70;1.40;;;1.70;99.90;;;;;;4694099;30;20167;-49
2023/11/25 00:20:46;;;;;;;3.63;1.50;;;1.60;99.90;;;;;;4692276;30;20525;-48
2023/11/25 00:23:14;;;;;;;1.98;1.40;;;1.60;99.90;;;;;;4690604;30;20507;-48
2023/11/25 00:25:40;;;;;;;4.50;1.70;;;1.50;99.90;;;;;;4687271;30;20485;-48
2023/11/25 00:28:10;;;;;;;3.20;1.75;;;1.50;99.90;;;;;;4683235;30;20701;-48
2023/11/25 00:30:38;;;;;;;2.25;1.50;;;1.50;99.90;;;;;;4674565;30;20053;-60
2023/11/25 00:33:06;;;;;;;5.28;1.80;;;1.50;99.90;;;;;;4693316;30;20058;-52
2023/11/25 00:35:33;;;;;;;2.55;1.77;;;1.40;99.90;;;;;;4693456;30;20128;-48
2023/11/25 00:38:00;;;;;;;2.30;1.40;;;1.50;99.90;;;;;;4672589;30;21334;-54
2023/11/25 00:40:28;;;;;;;2.92;1.50;;;1.50;99.90;;;;;;4677820;30;20068;-55
2023/11/25 00:42:55;;;;;;;5.13;1.83;;;1.60;99.90;;;;;;4693416;30;20128;-47
2023/11/25 00:45:25;;;;;;;1.83;1.40;;;1.50;99.90;;;;;;4692622;30;20154;-54
2023/11/25 00:47:53;;;;;;;2.97;1.60;;;1.60;99.90;;;;;;4694599;30;20182;-47
2023/11/25 00:50:20;;;;;;;2.28;1.40;;;1.60;99.90;;;;;;4693808;30;20057;-53
2023/11/25 00:52:47;;;;;;;4.47;1.50;;;1.70;99.90;;;;;;4678014;30;20057;-49
2023/11/25 00:55:14;;;;;;;2.80;1.60;;;1.70;99.90;;;;;;4692441;30;20057;-52
2023/11/25 00:57:41;;;;;;;3.40;1.60;;;1.70;99.90;;;;;;4693235;30;20442;-49
2023/11/25 01:00:15;;;;;;;4.07;2.05;;;1.70;99.90;;;;;;4678171;30;20606;-50
2023/11/25 01:02:44;;;;;;;4.22;1.63;;;1.60;99.90;;;;;;4690160;30;20114;-52
2023/11/25 01:05:11;;;;;;;2.90;1.48;;;1.60;99.90;;;;;;4676880;30;20425;-56
2023/11/25 01:07:38;;;;;;;2.00;1.38;;;1.60;99.90;;;;;;4678365;30;20614;-51
2023/11/25 01:10:05;;;;;;;4.22;1.70;;;1.70;99.90;;;;;;4694343;30;20451;-50
2023/11/25 01:12:34;;;;;;;2.92;1.60;;;1.70;99.90;;;;;;4692652;30;20053;-51
2023/11/25 01:15:03;;;;;;;3.42;1.70;;;1.80;99.90;;;;;;4680645;30;20057;-53
2023/11/25 01:17:31;;;;;;;3.50;1.90;;;1.80;99.90;;;;;;4693326;30;20046;-50
2023/11/25 01:19:58;;;;;;;2.70;1.60;;;1.80;99.90;;;;;;4693386;30;20145;-49
2023/11/25 01:22:26;;;;;;;4.38;1.70;;;1.80;99.90;;;;;;4693681;30;20113;-48
2023/11/25 01:24:53;;;;;;;4.03;1.67;;;1.80;99.90;;;;;;4694056;30;20093;-52
2023/11/25 01:27:23;;;;;;;2.47;1.70;;;1.90;99.90;;;;;;4693901;30;20086;-53
2023/11/25 01:29:51;;;;;;;3.60;1.70;;;1.90;99.90;;;;;;4690900;30;20137;-51
2023/11/25 01:32:19;;;;;;;7.47;2.05;;;1.90;99.90;;;;;;4693704;30;20061;-51
2023/11/25 01:34:47;;;;;;;4.90;1.85;;;1.90;99.90;;;;;;4692723;30;20054;-48
2023/11/25 01:37:17;;;;;;;4.50;1.80;;;1.90;99.90;;;;;;4691735;30;20049;-49
2023/11/25 01:39:51;;;;;;;2.97;1.70;;;2.00;99.90;;;;;;4677976;30;20058;-46
2023/11/25 01:42:18;;;;;;;4.07;1.60;;;1.90;99.90;;;;;;4693653;30;20056;-50
2023/11/25 01:44:46;;;;;;;2.53;1.50;;;1.90;99.90;;;;;;4693357;30;20041;-52
2023/11/25 01:47:14;;;;;;;3.65;1.70;;;1.90;99.90;;;;;;4678282;30;20113;-49
2023/11/25 01:49:42;;;;;;;3.45;1.60;;;1.90;99.90;;;;;;4693787;30;20645;-51
2023/11/25 01:52:09;;;;;;;3.55;1.80;;;1.90;99.90;;;;;;4693890;30;20053;-49
2023/11/25 01:54:36;;;;;;;3.28;1.58;;;2.00;99.90;;;;;;4693389;30;20061;-55
2023/11/25 01:57:04;;;;;;;5.85;1.70;;;1.90;99.90;;;;;;4693898;30;20587;-52
2023/11/25 01:59:33;;;;;;;4.18;1.70;;;1.90;99.90;;;;;;4694460;30;20045;-47
2023/11/25 02:02:00;;;;;;;3.47;1.73;;;1.80;99.90;;;;;;4681339;30;20462;-50
2023/11/25 02:04:28;;;;;;;3.08;1.60;;;1.80;99.90;;;;;;4696648;30;20058;-55
2023/11/25 02:06:55;;;;;;;5.03;1.83;;;1.80;99.90;;;;;;4681063;30;20157;-48
2023/11/25 02:09:24;;;;;;;4.70;1.63;;;1.80;99.90;;;;;;4680416;30;20045;-51
2023/11/25 02:12:02;;;;;;;3.88;1.63;;;1.80;99.90;;;;;;4692945;30;20500;-47
2023/11/25 02:14:29;;;;;;;3.42;1.35;;;1.80;99.90;;;;;;4698078;30;20060;-52
2023/11/25 02:16:56;;;;;;;2.97;1.40;;;1.80;99.90;;;;;;4696261;30;20057;-50
2023/11/25 02:19:24;;;;;;;2.63;1.50;;;1.80;99.90;;;;;;4680205;30;20066;-51
2023/11/25 02:21:55;;;;;;;4.50;1.77;;;1.80;99.90;;;;;;4680440;30;20049;-51
2023/11/25 02:24:26;;;;;;;2.60;1.60;;;1.80;99.90;;;;;;4695848;30;20045;-50
2023/11/25 02:27:00;;;;;;;6.10;1.50;;;1.70;99.90;;;;;;4693340;30;20139;-50
2023/11/25 02:29:28;;;;;;;6.78;1.73;;;1.80;99.90;;;;;;4671093;30;20520;-50
2023/11/25 02:31:55;;;;;;;2.78;1.50;;;1.80;99.90;;;;;;4683153;30;20544;-53
2023/11/25 02:34:25;;;;;;;6.43;1.63;;;1.70;99.90;;;;;;4686931;30;20174;-51
2023/11/25 02:36:52;;;;;;;3.20;1.60;;;1.80;99.90;;;;;;4668369;30;20552;-47
2023/11/25 02:39:19;;;;;;;5.22;2.10;;;1.80;99.90;;;;;;4688001;30;20075;-50
2023/11/25 02:41:48;;;;;;;2.90;1.50;;;1.80;99.90;;;;;;4685485;30;20539;-48
2023/11/25 02:44:19;;;;;;;3.60;1.60;;;1.70;99.90;;;;;;4684840;30;20149;-50
2023/11/25 02:46:47;;;;;;;4.05;1.65;;;1.60;99.90;;;;;;4690112;30;20057;-47
2023/11/25 02:49:15;;;;;;;6.78;2.17;;;1.60;99.90;;;;;;4687108;30;20058;-50
2023/11/25 02:51:50;;;;;;;5.00;1.83;;;1.50;99.90;;;;;;4686869;30;20089;-50
2023/11/25 02:54:19;;;;;;;5.88;1.88;;;1.40;99.90;;;;;;4686538;30;20046;-49
2023/11/25 02:56:46;;;;;;;2.83;1.75;;;1.40;99.90;;;;;;4685786;30;20053;-54
2023/11/25 02:59:13;;;;;;;3.20;1.80;;;1.40;99.90;;;;;;4671687;30;20133;-50
2023/11/25 03:01:48;;;;;;;4.63;1.70;;;1.40;99.90;;;;;;4682590;30;20497;-52
2023/11/25 03:04:19;;;;;;;3.85;1.70;;;1.30;99.90;;;;;;4688880;30;20064;-49
2023/11/25 03:06:48;;;;;;;7.93;1.90;;;1.30;99.90;;;;;;4682632;30;20049;-46
2023/11/25 03:09:15;;;;;;;3.67;1.70;;;1.40;99.90;;;;;;4689232;30;20085;-49
2023/11/25 03:11:42;;;;;;;5.72;1.90;;;1.30;99.90;;;;;;4687672;30;20148;-48
2023/11/25 03:14:09;;;;;;;4.70;1.70;;;1.30;99.90;;;;;;4672459;30;20054;-46
2023/11/25 03:16:36;;;;;;;6.80;2.33;;;1.20;99.90;;;;;;4684503;30;20144;-51
2023/11/25 03:19:06;;;;;;;5.28;1.73;;;1.10;99.90;;;;;;4668039;30;20058;-46
2023/11/25 03:21:34;;;;;;;3.92;1.80;;;1.00;99.90;;;;;;4684606;30;20136;-50
2023/11/25 03:24:01;;;;;;;7.22;1.92;;;1.00;99.90;;;;;;4684064;30;20073;-49
2023/11/25 03:26:28;;;;;;;7.82;1.90;;;0.90;99.90;;;;;;4687251;30;20489;-48
2023/11/25 03:28:55;;;;;;;6.53;2.85;;;0.90;99.90;;;;;;4671066;30;20119;-50
2023/11/25 03:31:23;;;;;;;4.30;1.92;;;0.90;99.90;;;;;;4670158;30;20080;-49
2023/11/25 03:33:50;;;;;;;2.90;1.80;;;0.80;99.90;;;;;;4687108;30;20164;-49
2023/11/25 03:36:17;;;;;;;4.80;1.85;;;0.70;99.90;;;;;;4685209;30;20060;-52
2023/11/25 03:38:44;;;;;;;3.58;1.73;;;0.70;99.90;;;;;;4686711;30;20054;-52
2023/11/25 03:41:12;;;;;;;4.82;2.17;;;0.70;99.90;;;;;;4684439;30;20130;-54
2023/11/25 03:43:39;;;;;;;5.45;1.88;;;0.70;99.90;;;;;;4681250;30;20513;-48
2023/11/25 03:46:06;;;;;;;3.03;1.80;;;0.60;99.90;;;;;;4689946;30;20194;-48
2023/11/25 03:48:34;;;;;;;4.03;1.77;;;0.60;99.90;;;;;;4682648;30;20535;-47
2023/11/25 03:51:01;;;;;;;3.72;1.92;;;0.60;99.90;;;;;;4688962;30;20065;-48
2023/11/25 03:53:30;;;;;;;3.20;1.80;;;0.60;99.90;;;;;;4683562;30;20558;-45
2023/11/25 03:55:59;;;;;;;5.78;2.80;;;0.50;99.90;;;;;;4685518;30;20148;-48
2023/11/25 03:58:26;;;;;;;4.82;2.00;;;0.50;99.90;;;;;;4684346;30;20140;-47
2023/11/25 04:00:55;;;;;;;3.97;1.80;;;0.50;99.90;;;;;;4684787;30;20056;-54
2023/11/25 04:03:22;;;;;;;9.63;2.28;;;0.50;99.90;;;;;;4671047;30;20050;-56
2023/11/25 04:05:49;;;;;;;3.65;1.85;;;0.50;99.90;;;;;;4670970;30;20513;-45
2023/11/25 04:08:16;;;;;;;5.40;2.42;;;0.50;99.90;;;;;;4686765;30;20053;-50
2023/11/25 04:10:43;;;;;;;4.82;2.30;;;0.40;99.90;;;;;;4684391;30;20081;-44
2023/11/25 04:13:10;;;;;;;4.03;1.90;;;0.40;99.90;;;;;;4691333;30;20535;-48
2023/11/25 04:15:37;;;;;;;5.20;2.00;;;0.40;99.90;;;;;;4685405;30;20054;-43
2023/11/25 04:18:04;;;;;;;5.88;2.33;;;0.40;99.90;;;;;;4688558;30;20461;-50
2023/11/25 04:20:33;;;;;;;5.50;1.88;;;0.30;99.90;;;;;;4683322;30;20045;-50
2023/11/25 04:23:06;;;;;;;5.18;1.80;;;0.40;99.90;;;;;;4650450;30;20050;-48
2023/11/25 04:25:35;;;;;;;4.07;1.80;;;0.30;99.90;;;;;;4680718;30;20370;-52
2023/11/25 04:28:04;;;;;;;7.25;1.70;;;0.40;99.90;;;;;;4681966;30;20050;-45
2023/11/25 04:30:31;;;;;;;2.92;1.95;;;0.30;99.90;;;;;;4687644;30;20045;-47
2023/11/25 04:32:59;;;;;;;3.58;1.92;;;0.30;99.90;;;;;;4689558;30;20081;-51
2023/11/25 04:35:26;;;;;;;4.75;1.90;;;0.30;99.90;;;;;;4683190;30;20493;-49
2023/11/25 04:37:53;;;;;;;5.72;2.00;;;0.30;99.90;;;;;;4685763;30;20045;-47
2023/11/25 04:40:20;;;;;;;3.75;1.70;;;0.30;99.90;;;;;;4682863;30;20630;-45
2023/11/25 04:42:48;;;;;;;3.28;1.80;;;0.20;99.90;;;;;;4687609;30;20073;-47
2023/11/25 04:45:16;;;;;;;3.85;2.13;;;0.30;99.90;;;;;;4685594;30;20064;-47
2023/11/25 04:47:45;;;;;;;5.20;2.72;;;0.20;99.90;;;;;;4683804;30;20058;-45
2023/11/25 04:50:14;;;;;;;5.18;2.05;;;0.20;99.90;;;;;;4686943;30;20074;-47
2023/11/25 04:52:42;;;;;;;5.80;2.00;;;0.20;99.90;;;;;;4686819;30;20061;-50
2023/11/25 04:55:10;;;;;;;6.53;2.47;;;0.20;99.90;;;;;;4683938;30;20060;-50
2023/11/25 04:57:38;;;;;;;11.18;2.10;;;0.10;99.90;;;;;;4682030;30;20045;-48
2023/11/25 05:00:10;;;;;;;6.90;1.85;;;0.10;99.90;;;;;;4684951;30;20576;-48
2023/11/25 05:02:38;;;;;;;5.88;2.00;;;0.00;99.90;;;;;;4682992;30;20080;-47
2023/11/25 05:05:06;;;;;;;7.03;2.20;;;0.00;99.90;;;;;;4683560;30;20061;-48
2023/11/25 05:07:34;;;;;;;5.43;2.55;;;0.00;99.90;;;;;;4668980;30;20064;-49
2023/11/25 05:10:04;;;;;;;6.03;2.28;;;0.00;99.90;;;;;;4679144;30;20061;-50
2023/11/25 05:12:32;;;;;;;3.30;2.05;;;0.00;99.90;;;;;;4692347;30;20057;-49
2023/11/25 05:14:59;;;;;;;6.50;2.05;;;0.00;99.90;;;;;;4687519;30;21681;-49
2023/11/25 05:17:26;;;;;;;6.82;2.47;;;-0.10;99.90;;;;;;4687097;30;20511;-52
2023/11/25 05:19:54;;;;;;;5.22;2.08;;;0.00;99.90;;;;;;4665552;30;20057;-49
2023/11/25 05:22:21;;;;;;;5.35;1.90;;;0.00;99.90;;;;;;4684239;30;20497;-49
2023/11/25 05:24:49;;;;;;;4.88;2.05;;;0.00;99.90;;;;;;4681574;30;20066;-52
2023/11/25 05:27:16;;;;;;;7.25;2.40;;;0.00;99.90;;;;;;4682589;30;20556;-51
2023/11/25 05:29:43;;;;;;;6.60;2.00;;;0.00;99.90;;;;;;4683677;30;20420;-50
2023/11/25 05:32:10;;;;;;;7.00;2.45;;;0.00;99.90;;;;;;4684818;30;20050;-54
2023/11/25 05:34:39;;;;;;;6.80;2.22;;;-0.10;99.90;;;;;;4685788;30;20080;-47
2023/11/25 05:37:08;;;;;;;8.35;2.35;;;0.00;99.90;;;;;;4685040;30;20141;-50
2023/11/25 05:39:39;;;;;;;8.95;2.47;;;-0.10;99.90;;;;;;4688528;30;20057;-52
2023/11/25 05:42:07;;;;;;;5.45;1.98;;;-0.10;99.90;;;;;;4688008;30;20476;-53
2023/11/25 05:44:34;;;;;;;10.35;2.10;;;-0.10;99.90;;;;;;4688788;30;20062;-53
2023/11/25 05:47:01;;;;;;;8.63;2.75;;;-0.10;99.90;;;;;;4688415;30;20062;-48
2023/11/25 05:49:28;;;;;;;6.85;2.10;;;-0.10;99.90;;;;;;4688631;30;20060;-54
2023/11/25 05:51:55;;;;;;;4.65;2.20;;;-0.10;99.90;;;;;;4686340;30;20049;-50
2023/11/25 05:54:27;;;;;;;5.70;2.25;;;-0.10;99.90;;;;;;4687818;30;20486;-53
2023/11/25 05:56:54;;;;;;;5.68;2.30;;;-0.20;99.90;;;;;;4686034;30;20206;-54
2023/11/25 05:59:21;;;;;;;6.80;2.00;;;-0.20;99.90;;;;;;4689278;30;20115;-58
2023/11/25 06:01:49;;;;;;;5.57;2.40;;;-0.20;99.90;;;;;;4681757;30;20064;-51
2023/11/25 06:04:16;;;;;;;8.13;2.25;;;-0.10;99.90;;;;;;4688563;30;20140;-51
2023/11/25 06:06:47;;;;;;;;;;;-0.20;99.90;;;;;;4684147;30;20050;-51
2023/11/25 06:09:15;;;;;;;5.50;2.15;;;-0.20;99.90;;;;;;4687001;30;19978;-49
2023/11/25 06:11:42;;;;;;;6.50;2.40;;;-0.20;99.90;;;;;;4668853;30;20060;-49
2023/11/25 06:14:12;;;;;;;5.95;2.17;;;-0.30;99.90;;;;;;4686929;30;20156;-50
2023/11/25 06:16:41;;;;;;;7.13;2.60;;;-0.20;99.90;;;;;;4686016;30;20329;-45
2023/11/25 06:19:08;;;;;;;6.57;2.67;;;-0.20;99.90;;;;;;4685199;30;20086;-47
2023/11/25 06:21:35;;;;;;;5.82;2.58;;;-0.20;99.90;;;;;;4686024;30;20179;-47
2023/11/25 06:24:04;;;;;;;5.45;2.75;;;-0.20;99.90;;;;;;4685486;30;20063;-50
2023/11/25 06:26:31;;;;;;;6.80;2.13;;;-0.30;99.90;;;;;;4690318;30;20084;-47
2023/11/25 06:28:58;;;;;;;7.95;2.42;;;-0.30;99.90;;;;;;4686636;30;20057;-54
2023/11/25 06:31:25;;;;;;;4.18;2.28;;;-0.20;99.90;;;;;;4690650;30;20132;-55
2023/11/25 06:33:52;;;;;;;3.92;2.80;;;-0.30;99.90;;;;;;4689962;30;20058;-50
2023/11/25 06:36:19;;;;;;;5.45;2.40;;;-0.20;99.90;;;;;;4691154;30;20125;-49
2023/11/25 06:38:45;;;;;;;4.65;2.10;;;-0.20;99.90;;;;;;4691195;30;20625;-55
2023/11/25 06:41:12;;;;;;;8.43;2.30;;;-0.20;99.90;;;;;;4689542;30;20061;-48
2023/11/25 06:43:40;;;;;;;7.60;2.55;;;-0.20;99.90;;;;;;4691071;30;20112;-50
2023/11/25 06:46:39;;;;;;;4.68;2.17;;;-0.20;99.90;;;;;;4688829;30;20557;-53
2023/11/25 06:49:07;;;;;;;9.88;2.75;;;-0.20;99.90;;;;;;4643298;30;20063;-50
2023/11/25 06:51:34;;;;;;;6.57;2.28;;;-0.20;99.90;;;;;;4649367;30;20137;-44
2023/11/25 06:54:01;;;;;;;7.47;2.38;;;-0.20;99.90;;;;;;4650333;30;20066;-43
2023/11/25 06:56:28;;;;;;;4.88;2.58;;;-0.10;99.90;;;;;;4647452;30;20518;-44
2023/11/25 06:58:55;;;;;;;9.20;3.28;;;-0.10;99.90;;;;;;4662243;30;20046;-49
2023/11/25 07:01:22;;;;;;;5.78;2.55;;;-0.10;99.90;;;;;;4660812;30;20175;-44
2023/11/25 07:03:49;;;;;;;12.52;2.67;;;-0.10;99.90;;;;;;4659548;30;20439;-46
2023/11/25 07:06:17;;;;;;;5.80;2.00;;;-0.20;99.90;;;;;;4660155;30;20235;-43
2023/11/25 07:08:45;;;;;;;7.53;3.03;;;-0.10;99.90;;;;;;4660083;30;20577;-45
2023/11/25 07:11:13;;;;;;;4.40;2.45;;;-0.10;99.90;;;;;;4661484;30;20054;-43
2023/11/25 07:13:42;;;;;;;6.63;2.38;;;-0.10;99.90;;;;;;4663489;30;20059;-45
2023/11/25 07:16:12;;;;;;;10.48;2.40;;;-0.10;99.90;;;;;;4660869;30;20050;-43
2023/11/25 07:18:45;;;;;;;10.65;3.92;;;-0.10;99.90;;;;;;4660533;30;20046;-47
2023/11/25 07:21:13;;;;;;;7.07;2.47;;;0.00;99.90;;;;;;4660945;30;20156;-44
2023/11/25 07:23:42;;;;;;;8.23;2.78;;;0.00;99.90;;;;;;4678447;30;20142;-45
2023/11/25 07:26:11;;;;;;;8.77;2.47;;;0.00;99.90;;;;;;4679567;30;20078;-42
2023/11/25 07:28:39;;;;;;;7.90;3.00;;;0.10;99.90;;;;;;4679766;30;20487;-45
2023/11/25 07:31:08;;;;;;;8.27;2.50;;;0.10;99.90;;;;;;4679179;30;20065;-46
2023/11/25 07:33:35;;;;;;;6.43;2.60;;;0.20;99.90;;;;;;4678710;30;20128;-47
2023/11/25 07:36:02;;;;;;;8.50;2.80;;;0.20;99.90;;;;;;4664913;30;20061;-47
2023/11/25 07:38:29;;;;;;;6.65;2.20;;;0.30;99.90;;;;;;4677328;30;20090;-40
2023/11/25 07:40:56;;;;;;;8.20;2.67;;;0.40;99.90;;;;;;4677888;30;20050;-42
2023/11/25 07:43:24;;;;;;;8.55;2.88;;;0.50;99.90;;;;;;4677709;30;20046;-46
2023/11/25 07:45:51;;;;;;;8.27;2.90;;;0.50;99.90;;;;;;4678162;30;20152;-46
2023/11/25 07:48:19;;;;;;;6.28;2.65;;;0.60;99.90;;;;;;4678042;30;20439;-45
2023/11/25 07:50:47;;;;;;;7.07;2.80;;;0.60;99.90;;;;;;4676622;30;20113;-46
2023/11/25 07:53:17;;;;;;;10.73;3.13;;;0.70;99.90;;;;;;4679666;30;20054;-44
2023/11/25 07:55:44;;;;;;;9.32;2.67;;;0.70;99.90;;;;;;4677312;30;20431;-47
2023/11/25 07:58:11;;;;;;;6.97;2.65;;;0.80;99.90;;;;;;4677771;30;20054;-41
2023/11/25 08:00:39;;;;;;;7.82;2.50;;;0.70;99.90;;;;;;4678967;30;20048;-54
2023/11/25 08:03:06;;;;;;;6.47;2.50;;;0.80;99.90;;;;;;4678533;30;20468;-46
2023/11/25 08:05:34;;;;;;;6.30;2.58;;;0.90;99.90;;;;;;4676825;30;20080;-46
2023/11/25 08:08:03;;;;;;;8.38;2.83;;;0.90;99.90;;;;;;4677716;30;20066;-49
2023/11/25 08:10:34;;;;;;;6.93;2.75;;;1.00;99.90;;;;;;4676587;30;20065;-43
2023/11/25 08:13:01;;;;;;;5.55;2.95;;;1.00;99.90;;;;;;4680993;30;20066;-48
2023/11/25 08:15:29;;;;;;;8.27;2.72;;;1.10;99.90;;;;;;4677356;30;20524;-45
2023/11/25 08:17:59;;;;;;;7.32;3.00;;;1.10;99.90;;;;;;4678608;30;20056;-45
2023/11/25 08:20:26;;;;;;;6.60;3.20;;;1.10;99.90;;;;;;4674022;30;20049;-47
2023/11/25 08:22:53;;;;;;;10.30;3.08;;;1.10;99.90;;;;;;4672971;30;20050;-45
2023/11/25 08:25:20;;;;;;;13.85;3.45;;;1.20;99.90;;;;;;4677082;30;20058;-42
2023/11/25 08:27:49;;;;;;;12.32;3.25;;;1.20;99.90;;;;;;4676800;30;20120;-44
2023/11/25 08:30:16;;;;;;;9.73;4.43;;;1.20;99.90;;;;;;4676374;30;20078;-39
2023/11/25 08:32:44;;;;;;;10.57;3.20;;;1.20;99.90;;;;;;4677484;30;20421;-46
2023/11/25 08:35:12;;;;;;;9.30;3.30;;;1.20;99.90;;;;;;4681569;30;20256;-47
2023/11/25 08:37:39;;;;;;;10.02;3.85;;;1.20;99.90;;;;;;4678788;30;20579;-44
2023/11/25 08:40:15;;;;;;;7.65;3.10;;;1.20;99.90;;;;;;4674264;30;20057;-47
2023/11/25 08:42:45;;;;;;;11.80;3.50;;;1.20;99.90;;;;;;4677358;30;20084;-41
2023/11/25 08:45:12;;;;;;;12.38;3.45;;;1.20;99.90;;;;;;4678180;30;20415;-48
2023/11/25 08:47:41;;;;;;;8.80;3.40;;;1.20;99.90;;;;;;4675331;30;20140;-45
2023/11/25 08:50:10;;;;;;;9.15;3.60;;;1.30;99.90;;;;;;4679365;30;20088;-45
2023/11/25 08:52:40;;;;;;;9.20;3.83;;;1.30;99.90;;;;;;4682166;30;20149;-49
2023/11/25 08:55:11;;;;;;;11.05;5.00;;;1.40;99.90;;;;;;4680890;30;20137;-46
2023/11/25 08:57:38;;;;;;;9.65;3.65;;;1.60;99.90;;;;;;4680304;30;20071;-48
2023/11/25 09:00:29;;;;;;;10.23;3.70;;;1.70;99.90;;;;;;4679162;30;20050;-44
2023/11/25 09:02:54;;;;;;;11.73;3.50;;;1.70;99.90;;;;;;4677949;30;20053;-43
2023/11/25 09:05:21;;;;;;;9.75;3.72;;;1.60;99.90;;;;;;4676778;30;20081;-49
2023/11/25 09:07:55;;;;;;;11.07;4.32;;;1.60;99.90;;;;;;4678765;30;20085;-45
2023/11/25 09:10:24;;;;;;;8.40;4.00;;;1.70;99.90;;;;;;4677833;30;20081;-49
2023/11/25 09:12:52;;;;;;;8.40;4.22;;;1.80;99.90;;;;;;4676594;30;20560;-46
2023/11/25 09:15:21;;;;;;;8.88;4.00;;;2.00;99.90;;;;;;4679013;30;20080;-47
2023/11/25 09:17:48;;;;;;;11.48;4.30;;;2.10;99.90;;;;;;4678018;30;20350;-47
2023/11/25 09:20:16;;;;;;;8.13;3.97;;;2.30;99.90;;;;;;4677714;30;20050;-47
2023/11/25 09:22:44;;;;;;;11.23;4.03;;;2.40;99.90;;;;;;4678828;30;20050;-44
2023/11/25 09:25:12;;;;;;;10.55;4.05;;;2.30;99.90;;;;;;4678597;30;20057;-42
2023/11/25 09:27:40;;;;;;;9.68;4.30;;;2.30;99.90;;;;;;4664942;30;20433;-47
2023/11/25 09:30:11;;;;;;;10.93;3.47;;;2.20;99.90;;;;;;4678836;30;20797;-48
2023/11/25 09:32:39;;;;;;;8.15;4.25;;;2.30;99.90;;;;;;4681238;30;20089;-48
2023/11/25 09:35:08;;;;;;;8.05;3.60;;;2.30;99.90;;;;;;4680216;30;20440;-44
2023/11/25 09:37:35;;;;;;;11.02;3.75;;;2.30;99.90;;;;;;4679285;30;20507;-46
2023/11/25 09:40:04;;;;;;;7.45;3.85;;;2.50;99.90;;;;;;4680758;30;20141;-48
2023/11/25 09:42:32;;;;;;;11.18;4.00;;;2.60;99.90;;;;;;4680317;30;20100;-47
2023/11/25 09:45:03;;;;;;;8.80;4.40;;;2.70;99.90;;;;;;4680188;30;20526;-41
2023/11/25 09:47:32;;;;;;;10.98;4.75;;;2.80;99.90;;;;;;4678137;30;20074;-42
2023/11/25 09:49:59;;;;;;;10.50;3.72;;;2.90;99.90;;;;;;4680862;30;20054;-48
2023/11/25 09:52:29;;;;;;;9.38;4.22;;;3.00;99.90;;;;;;4678953;30;20893;-46
2023/11/25 09:54:58;;;;;;;10.30;4.10;;;3.00;99.90;;;;;;4675434;30;20493;-43
2023/11/25 09:57:32;;;;;;;11.75;5.68;;;3.20;99.90;;;;;;4678915;30;20446;-47
2023/11/25 10:00:00;;;;;;;12.40;4.45;;;3.40;99.90;;;;;;4680234;30;20138;-45
2023/11/25 10:02:36;;;;;;;7.25;4.13;;;3.50;99.90;;;;;;4678620;30;20088;-48
2023/11/25 10:05:05;;;;;;;13.13;4.00;;;3.50;99.90;;;;;;4677735;30;20521;-47
2023/11/25 10:07:32;;;;;;;12.82;5.13;;;3.40;99.90;;;;;;4676398;30;20133;-44
2023/11/25 10:10:01;;;;;;;15.75;5.20;;;3.50;99.90;;;;;;4679121;30;20058;-46
2023/11/25 10:12:29;;;;;;;6.72;4.28;;;3.40;99.90;;;;;;4679093;30;20052;-43
2023/11/25 10:14:59;;;;;;;12.10;4.53;;;3.30;99.90;;;;;;4681158;30;20117;-48
2023/11/25 10:17:26;;;;;;;8.73;4.13;;;3.20;99.90;;;;;;4677494;30;20056;-45
2023/11/25 10:20:09;;;;;;;8.30;4.03;;;3.50;99.90;;;;;;4678372;30;20052;-47
2023/11/25 10:22:47;;;;;;;10.93;4.22;;;3.70;99.90;;;;;;4678117;30;20112;-49
2023/11/25 10:25:19;;;;;;;12.77;4.57;;;3.90;99.90;;;;;;4676081;30;20521;-44
2023/11/25 10:27:47;;;;;;;11.50;4.75;;;4.30;99.90;;;;;;4681589;30;20062;-49
2023/11/25 10:30:15;;;;;;;14.70;4.63;;;4.50;99.90;;;;;;4677291;30;20113;-49
2023/11/25 10:32:42;;;;;;;13.90;5.65;;;4.20;99.90;;;;;;4678021;30;20401;-45
2023/11/25 10:35:09;;;;;;;10.13;4.10;;;4.00;99.90;;;;;;4677484;30;20157;-46
2023/11/25 10:37:40;;;;;;;12.40;4.88;;;4.00;99.90;;;;;;4678542;30;20357;-47
2023/11/25 10:40:16;;;;;;;10.65;4.35;;;4.00;99.90;;;;;;4677541;30;20058;-53
2023/11/25 10:42:45;;;;;;;10.32;5.10;;;3.90;99.90;;;;;;4678418;30;20141;-46
2023/11/25 10:45:16;;;;;;;10.02;4.45;;;4.00;99.90;;;;;;4677426;30;20061;-46
2023/11/25 10:47:43;;;;;;;13.45;4.72;;;3.90;99.90;;;;;;4678974;30;20066;-47
2023/11/25 10:50:13;;;;;;;11.57;4.20;;;4.00;99.90;;;;;;4676266;30;20068;-46
2023/11/25 10:52:43;;;;;;;13.40;4.28;;;3.90;99.90;;;;;;4678189;30;20053;-42
2023/11/25 10:55:10;;;;;;;11.45;4.60;;;3.80;99.90;;;;;;4677359;30;20050;-49
2023/11/25 10:57:40;;;;;;;15.13;5.00;;;3.80;99.90;;;;;;4679157;30;20069;-48
2023/11/25 11:00:13;;;;;;;10.73;4.30;;;4.00;99.90;;;;;;4679765;30;20100;-47
2023/11/25 11:02:46;;;;;;;10.07;4.50;;;4.10;99.90;;;;;;4677998;30;20060;-47
2023/11/25 11:05:18;;;;;;;10.65;4.55;;;4.00;99.90;;;;;;4676006;30;20053;-45
2023/11/25 11:07:49;;;;;;;9.00;3.88;;;3.90;99.90;;;;;;4675101;30;20066;-45
2023/11/25 11:10:27;;;;;;;7.60;3.90;;;4.10;99.90;;;;;;4674254;30;20058;-48
2023/11/25 11:13:07;;;;;;;10.95;4.13;;;4.40;99.90;;;;;;4660647;30;20060;-48
2023/11/25 11:15:37;;;;;;;10.98;4.18;;;4.80;99.90;;;;;;4674691;30;20081;-48
2023/11/25 11:18:13;;;;;;;11.77;5.00;;;4.90;99.90;;;;;;4676529;30;20153;-44
2023/11/25 11:20:47;;;;;;;17.27;5.43;;;5.00;99.90;;;;;;4675457;30;20057;-46
2023/11/25 11:23:17;;;;;;;12.73;3.95;;;4.80;99.90;;;;;;4675708;30;20349;-46
2023/11/25 11:26:32;;;;;;;12.82;5.20;;;4.50;99.90;;;;;;4676182;30;20131;-45
2023/11/25 11:29:08;;;;;;;13.57;3.95;;;4.20;99.90;;;;;;4670319;30;20065;-47
2023/11/25 11:32:20;;;;;;;9.82;4.20;;;4.00;99.90;;;;;;4676232;30;20794;-45
2023/11/25 11:34:49;;;;;;;;;;;3.80;99.90;;;;;;4673454;30;20058;-42
2023/11/25 11:37:17;;;;;;;17.00;4.20;;;3.80;99.90;;;;;;4677215;30;20025;-41
2023/11/25 11:40:06;;;;;;;9.65;4.05;;;3.80;99.90;;;;;;4679708;30;20365;-45
2023/11/25 11:42:34;;;;;;;16.52;3.95;;;3.70;99.90;;;;;;4677350;30;20157;-47
2023/11/25 11:45:20;;;;;;;16.95;4.50;;;3.60;99.90;;;;;;4679955;30;20153;-43
2023/11/25 11:47:52;;;;;;;17.38;4.30;;;3.70;99.90;;;;;;4662206;30;20069;-43
2023/11/25 11:50:31;;;;;;;12.70;4.38;;;3.80;99.90;;;;;;4664184;30;20057;-49
2023/11/25 11:53:01;;;;;;;10.32;3.90;;;3.90;99.90;;;;;;4661993;30;20058;-47
2023/11/25 11:55:36;;;;;;;8.93;3.88;;;4.00;99.90;;;;;;4663383;30;20046;-48
2023/11/25 11:58:04;;;;;;;14.52;4.13;;;4.10;99.90;;;;;;4663653;30;20046;-44
2023/11/25 12:00:48;;;;;;;12.30;4.60;;;4.00;99.90;;;;;;4664072;30;20077;-45
2023/11/25 12:03:17;;;;;;;17.83;4.05;;;4.00;99.90;;;;;;4663971;30;20054;-47
2023/11/25 12:05:44;;;;;;;19.40;4.82;;;4.00;99.90;;;;;;4664544;30;20145;-46
2023/11/25 12:08:11;;;;;;;9.68;3.72;;;4.00;99.90;;;;;;4664648;30;20073;-43
2023/11/25 12:10:39;;;;;;;12.70;5.10;;;3.90;99.90;;;;;;4665800;30;20054;-50
2023/11/25 12:13:08;;;;;;;12.45;4.10;;;3.80;99.90;;;;;;4667339;30;20065;-49
2023/11/25 12:15:36;;;;;;;13.05;4.40;;;3.80;99.90;;;;;;4660384;30;20063;-46
2023/11/25 12:18:05;;;;;;;14.98;5.78;;;3.80;99.90;;;;;;4662287;30;20055;-47
2023/11/25 12:20:32;;;;;;;15.45;4.88;;;3.70;99.90;;;;;;4662450;30;20137;-43
2023/11/25 12:23:06;;;;;;;9.82;4.57;;;3.70;99.90;;;;;;4661196;30;20576;-45
2023/11/25 12:25:35;;;;;;;12.98;4.03;;;3.50;99.90;;;;;;4660556;30;20552;-49
2023/11/25 12:28:09;;;;;;;9.02;3.80;;;3.40;99.90;;;;;;4662421;30;20134;-44
2023/11/25 12:30:37;;;;;;;7.97;3.65;;;3.20;99.90;;;;;;4660944;30;20065;-44
2023/11/25 12:33:06;;;;;;;9.10;3.85;;;3.00;99.90;;;;;;4661368;30;20074;-49
2023/11/25 12:35:37;;;;;;;15.05;4.15;;;3.10;99.90;;;;;;4660184;30;20073;-46
2023/11/25 12:38:05;;;;;;;11.13;4.10;;;3.10;99.90;;;;;;4660922;30;20050;-46
2023/11/25 12:40:46;;;;;;;13.23;5.50;;;3.10;99.90;;;;;;4659800;30;20422;-48
2023/11/25 12:43:13;;;;;;;15.07;3.92;;;3.10;99.90;;;;;;4661182;30;20165;-47
2023/11/25 12:45:43;;;;;;;15.25;4.72;;;3.10;99.90;;;;;;4659795;30;20238;-44
2023/11/25 12:48:12;;;;;;;11.05;3.70;;;3.10;99.90;;;;;;4719424;24;20053;-48
2023/11/25 12:51:04;;;;;;;13.00;3.78;;;3.10;99.90;;;;;;4728410;30;20071;-54
2023/11/25 12:53:32;;;;;;;11.95;3.80;;;3.10;99.90;;;;;;4731389;30;20049;-49
2023/11/25 12:56:00;;;;;;;8.18;3.15;;;3.00;99.90;;;;;;4728283;30;20068;-52
2023/11/25 12:58:27;;;;;;;11.73;3.47;;;2.90;99.90;;;;;;4728931;30;20163;-49
2023/11/25 13:00:56;;;;;;;10.60;3.78;;;3.00;99.90;;;;;;4728200;30;20049;-49
2023/11/25 13:03:34;;;;;;;14.23;4.68;;;2.90;99.90;;;;;;4729177;30;20057;-55